Time,TemperatureF,DewpointF,PressureIn,WindDirection,WindDirectionDegrees,WindSpeedMPH,WindSpeedGustMPH,Humidity,HourlyPrecipIn,Conditions,Clouds,dailyrainin,SolarRadiationWatts/m^2,SoftwareType,DateUTC
2013-08-02 00:02:00,45.0,43.0,-100.00,WNW,301,2.0,8.0,94,0.00,,,0.28,0.000000,,2013-08-02 06:02:00,
2013-08-02 00:33:00,45.0,43.0,-100.00,WNW,301,2.0,8.0,94,0.00,,,0.28,0.000000,,2013-08-02 06:33:00,
2013-08-02 00:43:00,45.0,43.0,-100.00,WNW,301,2.0,8.0,94,0.00,,,0.28,0.000000,,2013-08-02 06:43:00,
2013-08-02 00:52:00,45.0,43.0,-100.00,WNW,301,2.0,8.0,94,0.00,,,0.28,0.000000,,2013-08-02 06:52:00,
2013-08-02 01:02:00,45.0,44.0,-100.00,NW,319,3.0,6.0,96,0.00,,,0.28,0.000000,,2013-08-02 07:02:00,
2013-08-02 01:33:00,45.0,44.0,-100.00,NW,319,3.0,6.0,96,0.00,,,0.28,0.000000,,2013-08-02 07:33:00,
2013-08-02 01:44:00,45.0,44.0,-100.00,NW,319,3.0,6.0,96,0.00,,,0.28,0.000000,,2013-08-02 07:44:00,
2013-08-02 01:53:00,45.0,44.0,-100.00,NW,319,3.0,6.0,96,0.00,,,0.28,0.000000,,2013-08-02 07:53:00,
2013-08-02 02:02:00,48.0,44.0,-100.00,NW,308,2.0,5.0,86,0.00,,,0.28,0.000000,,2013-08-02 08:02:00,
2013-08-02 02:22:00,48.0,44.0,-100.00,NW,308,2.0,5.0,86,0.00,,,0.28,0.000000,,2013-08-02 08:22:00,
2013-08-02 02:33:00,48.0,44.0,-100.00,NW,308,2.0,5.0,86,0.00,,,0.28,0.000000,,2013-08-02 08:33:00,
2013-08-02 02:43:00,48.0,44.0,-100.00,NW,308,2.0,5.0,86,0.00,,,0.28,0.000000,,2013-08-02 08:43:00,
2013-08-02 02:54:00,48.0,44.0,-100.00,NW,308,2.0,5.0,86,0.00,,,0.28,0.000000,,2013-08-02 08:54:00,
2013-08-02 03:02:00,46.0,44.0,-100.00,WNW,297,1.0,3.0,93,0.00,,,0.28,0.000000,,2013-08-02 09:02:00,
2013-08-02 03:33:00,46.0,44.0,-100.00,WNW,297,1.0,3.0,93,0.00,,,0.28,0.000000,,2013-08-02 09:33:00,
2013-08-02 03:43:00,46.0,44.0,-100.00,WNW,297,1.0,3.0,93,0.00,,,0.28,0.000000,,2013-08-02 09:43:00,
2013-08-02 03:53:00,46.0,44.0,-100.00,WNW,297,1.0,3.0,93,0.00,,,0.28,0.000000,,2013-08-02 09:53:00,
2013-08-02 04:02:00,46.0,45.0,-100.00,West,260,2.0,5.0,95,0.00,,,0.28,0.000000,,2013-08-02 10:02:00,
2013-08-02 04:23:00,46.0,45.0,-100.00,West,260,2.0,5.0,95,0.00,,,0.28,0.000000,,2013-08-02 10:23:00,
2013-08-02 04:33:00,46.0,45.0,-100.00,West,260,2.0,5.0,95,0.00,,,0.28,0.000000,,2013-08-02 10:33:00,
2013-08-02 04:43:00,46.0,45.0,-100.00,West,260,2.0,5.0,95,0.00,,,0.28,0.000000,,2013-08-02 10:43:00,
2013-08-02 04:52:00,46.0,45.0,-100.00,West,260,2.0,5.0,95,0.00,,,0.28,0.000000,,2013-08-02 10:52:00,
2013-08-02 05:02:00,46.0,44.0,-100.00,WSW,244,1.0,4.0,91,0.00,,,0.28,0.000000,,2013-08-02 11:02:00,
2013-08-02 05:33:00,46.0,44.0,-100.00,WSW,244,1.0,4.0,91,0.00,,,0.28,0.000000,,2013-08-02 11:33:00,
2013-08-02 05:43:00,46.0,44.0,-100.00,WSW,244,1.0,4.0,91,0.00,,,0.28,0.000000,,2013-08-02 11:43:00,
2013-08-02 05:52:00,46.0,44.0,-100.00,WSW,244,1.0,4.0,91,0.00,,,0.28,0.000000,,2013-08-02 11:52:00,
2013-08-02 06:02:00,46.0,44.0,-100.00,WNW,291,2.0,5.0,92,0.00,,,0.28,0.000000,,2013-08-02 12:02:00,
2013-08-02 06:33:00,46.0,44.0,-100.00,WNW,291,2.0,5.0,92,0.00,,,0.28,0.000000,,2013-08-02 12:33:00,
2013-08-02 06:43:00,46.0,44.0,-100.00,WNW,291,2.0,5.0,92,0.00,,,0.28,0.000000,,2013-08-02 12:43:00,
2013-08-02 06:52:00,46.0,44.0,-100.00,WNW,291,2.0,5.0,92,0.00,,,0.28,0.000000,,2013-08-02 12:52:00,
2013-08-02 07:02:00,47.0,44.0,-100.00,SSE,163,2.0,4.0,90,0.00,,,0.28,14.000000,,2013-08-02 13:02:00,
2013-08-02 07:22:00,47.0,44.0,-100.00,SSE,163,2.0,4.0,90,0.00,,,0.28,14.000000,,2013-08-02 13:22:00,
2013-08-02 07:33:00,47.0,44.0,-100.00,SSE,163,2.0,4.0,90,0.00,,,0.28,14.000000,,2013-08-02 13:33:00,
2013-08-02 07:43:00,47.0,44.0,-100.00,SSE,163,2.0,4.0,90,0.00,,,0.28,14.000000,,2013-08-02 13:43:00,
2013-08-02 07:52:00,47.0,44.0,-100.00,SSE,163,2.0,4.0,90,0.00,,,0.28,14.000000,,2013-08-02 13:52:00,
2013-08-02 08:02:00,48.0,45.0,-100.00,NNW,337,1.0,4.0,91,0.00,,,0.27,37.000000,,2013-08-02 14:02:00,
2013-08-02 08:32:00,48.0,45.0,-100.00,NNW,337,1.0,4.0,91,0.00,,,0.27,37.000000,,2013-08-02 14:32:00,
2013-08-02 08:43:00,48.0,45.0,-100.00,NNW,337,1.0,4.0,91,0.00,,,0.27,37.000000,,2013-08-02 14:43:00,
2013-08-02 08:53:00,48.0,45.0,-100.00,NNW,337,1.0,4.0,91,0.00,,,0.27,37.000000,,2013-08-02 14:53:00,
2013-08-02 09:32:00,51.0,47.0,-100.00,East,95,1.0,4.0,87,0.00,,,0.27,101.000000,,2013-08-02 15:32:00,
2013-08-02 09:43:00,51.0,47.0,-100.00,East,95,1.0,4.0,87,0.00,,,0.27,101.000000,,2013-08-02 15:43:00,
2013-08-02 09:52:00,51.0,47.0,-100.00,East,95,1.0,4.0,87,0.00,,,0.27,101.000000,,2013-08-02 15:52:00,
2013-08-02 10:01:00,51.0,47.0,-100.00,East,95,1.0,4.0,87,0.00,,,0.27,101.000000,,2013-08-02 16:01:00,
2013-08-02 10:02:00,54.0,45.0,-100.00,SSE,148,3.0,6.0,71,0.00,,,-99.99,337.000000,,2013-08-02 16:02:00,
2013-08-02 10:32:00,54.0,45.0,-100.00,SSE,148,3.0,6.0,71,0.00,,,-99.99,337.000000,,2013-08-02 16:32:00,
2013-08-02 10:43:00,54.0,45.0,-100.00,SSE,148,3.0,6.0,71,0.00,,,-99.99,337.000000,,2013-08-02 16:43:00,
2013-08-02 10:52:00,54.0,45.0,-100.00,SSE,148,3.0,6.0,71,0.00,,,-99.99,337.000000,,2013-08-02 16:52:00,
2013-08-02 11:02:00,53.0,47.0,-100.00,SSE,154,2.0,5.0,79,0.00,,,0.25,146.000000,,2013-08-02 17:02:00,
2013-08-02 11:35:00,53.0,47.0,-100.00,SSE,154,2.0,5.0,79,0.00,,,0.25,146.000000,,2013-08-02 17:35:00,
2013-08-02 11:43:00,53.0,47.0,-100.00,SSE,154,2.0,5.0,79,0.00,,,0.25,146.000000,,2013-08-02 17:43:00,
2013-08-02 11:52:00,53.0,47.0,-100.00,SSE,154,2.0,5.0,79,0.00,,,0.25,146.000000,,2013-08-02 17:52:00,
2013-08-02 12:32:00,56.0,46.0,-100.00,SSE,154,3.0,7.0,69,0.00,,,0.25,303.000000,,2013-08-02 18:32:00,
2013-08-02 12:43:00,56.0,46.0,-100.00,SSE,154,3.0,7.0,69,0.00,,,0.25,303.000000,,2013-08-02 18:43:00,
2013-08-02 12:52:00,56.0,46.0,-100.00,SSE,154,3.0,7.0,69,0.00,,,0.25,303.000000,,2013-08-02 18:52:00,
2013-08-02 13:01:00,56.0,46.0,-100.00,SSE,154,3.0,7.0,69,0.00,,,0.25,303.000000,,2013-08-02 19:01:00,
2013-08-02 13:02:00,57.0,47.0,-100.00,SSE,160,3.0,7.0,70,0.00,,,0.18,324.000000,,2013-08-02 19:02:00,
2013-08-02 13:32:00,57.0,47.0,-100.00,SSE,160,3.0,7.0,70,0.00,,,0.18,324.000000,,2013-08-02 19:32:00,
2013-08-02 13:43:00,57.0,47.0,-100.00,SSE,160,3.0,7.0,70,0.00,,,0.18,324.000000,,2013-08-02 19:43:00,
2013-08-02 13:52:00,57.0,47.0,-100.00,SSE,160,3.0,7.0,70,0.00,,,0.18,324.000000,,2013-08-02 19:52:00,
2013-08-02 14:02:00,60.0,48.0,-100.00,South,183,4.0,8.0,64,0.00,,,0.18,378.000000,,2013-08-02 20:02:00,
2013-08-02 14:32:00,60.0,48.0,-100.00,South,183,4.0,8.0,64,0.00,,,0.18,378.000000,,2013-08-02 20:32:00,
2013-08-02 14:43:00,60.0,48.0,-100.00,South,183,4.0,8.0,64,0.00,,,0.18,378.000000,,2013-08-02 20:43:00,
2013-08-02 14:52:00,60.0,48.0,-100.00,South,183,4.0,8.0,64,0.00,,,0.18,378.000000,,2013-08-02 20:52:00,
2013-08-02 15:02:00,61.0,46.0,-100.00,SE,125,4.0,11.0,58,0.00,,,0.14,412.000000,,2013-08-02 21:02:00,
2013-08-02 15:32:00,61.0,46.0,-100.00,SE,125,4.0,11.0,58,0.00,,,0.14,412.000000,,2013-08-02 21:32:00,
2013-08-02 15:43:00,61.0,46.0,-100.00,SE,125,4.0,11.0,58,0.00,,,0.14,412.000000,,2013-08-02 21:43:00,
2013-08-02 15:53:00,61.0,46.0,-100.00,SE,125,4.0,11.0,58,0.00,,,0.14,412.000000,,2013-08-02 21:53:00,
2013-08-02 16:02:00,62.0,48.0,-100.00,SE,144,4.0,8.0,60,0.00,,,0.10,438.000000,,2013-08-02 22:02:00,
2013-08-02 16:32:00,62.0,48.0,-100.00,SE,144,4.0,8.0,60,0.00,,,0.10,438.000000,,2013-08-02 22:32:00,
2013-08-02 16:43:00,62.0,48.0,-100.00,SE,144,4.0,8.0,60,0.00,,,0.10,438.000000,,2013-08-02 22:43:00,
2013-08-02 16:52:00,62.0,48.0,-100.00,SE,144,4.0,8.0,60,0.00,,,0.10,438.000000,,2013-08-02 22:52:00,
2013-08-02 17:02:00,63.0,45.0,-100.00,SSE,152,3.0,8.0,52,0.00,,,0.10,416.000000,,2013-08-02 23:02:00,
2013-08-02 17:32:00,63.0,45.0,-100.00,SSE,152,3.0,8.0,52,0.00,,,0.10,416.000000,,2013-08-02 23:32:00,
2013-08-02 17:43:00,63.0,45.0,-100.00,SSE,152,3.0,8.0,52,0.00,,,0.10,416.000000,,2013-08-02 23:43:00,
2013-08-02 17:53:00,63.0,45.0,-100.00,SSE,152,3.0,8.0,52,0.00,,,0.10,416.000000,,2013-08-02 23:53:00,
2013-08-02 18:02:00,61.0,45.0,-100.00,SSE,147,2.0,8.0,56,0.00,,,0.10,210.000000,,2013-08-03 00:02:00,
2013-08-02 18:33:00,61.0,45.0,-100.00,SSE,147,2.0,8.0,56,0.00,,,0.10,210.000000,,2013-08-03 00:33:00,
2013-08-02 18:43:00,61.0,45.0,-100.00,SSE,147,2.0,8.0,56,0.00,,,0.10,210.000000,,2013-08-03 00:43:00,
2013-08-02 18:52:00,61.0,45.0,-100.00,SSE,147,2.0,8.0,56,0.00,,,0.10,210.000000,,2013-08-03 00:52:00,
2013-08-02 19:02:00,59.0,45.0,-100.00,SE,133,2.0,5.0,60,0.00,,,0.10,158.000000,,2013-08-03 01:02:00,
2013-08-02 19:33:00,59.0,45.0,-100.00,SE,133,2.0,5.0,60,0.00,,,0.10,158.000000,,2013-08-03 01:33:00,
2013-08-02 19:42:00,59.0,45.0,-100.00,SE,133,2.0,5.0,60,0.00,,,0.10,158.000000,,2013-08-03 01:42:00,
2013-08-02 19:53:00,59.0,45.0,-100.00,SE,133,2.0,5.0,60,0.00,,,0.10,158.000000,,2013-08-03 01:53:00,
2013-08-02 20:32:00,57.0,47.0,-100.00,NE,47,2.0,10.0,69,0.00,,,0.10,65.000000,,2013-08-03 02:32:00,
2013-08-02 20:43:00,57.0,47.0,-100.00,NE,47,2.0,10.0,69,0.00,,,0.10,65.000000,,2013-08-03 02:43:00,
2013-08-02 20:52:00,57.0,47.0,-100.00,NE,47,2.0,10.0,69,0.00,,,0.10,65.000000,,2013-08-03 02:52:00,
2013-08-02 21:01:00,57.0,47.0,-100.00,NE,47,2.0,10.0,69,0.00,,,0.10,65.000000,,2013-08-03 03:01:00,
2013-08-02 21:02:00,54.0,44.0,-100.00,NW,319,2.0,7.0,69,0.00,,,0.10,33.000000,,2013-08-03 03:02:00,
2013-08-02 21:32:00,54.0,44.0,-100.00,NW,319,2.0,7.0,69,0.00,,,0.10,33.000000,,2013-08-03 03:32:00,
2013-08-02 21:43:00,54.0,44.0,-100.00,NW,319,2.0,7.0,69,0.00,,,0.10,33.000000,,2013-08-03 03:43:00,
2013-08-02 21:53:00,54.0,44.0,-100.00,NW,319,2.0,7.0,69,0.00,,,0.10,33.000000,,2013-08-03 03:53:00,
2013-08-02 22:02:00,51.0,42.0,-100.00,WNW,298,1.0,3.0,70,0.00,,,0.10,1.000000,,2013-08-03 04:02:00,
2013-08-02 22:33:00,51.0,42.0,-100.00,WNW,298,1.0,3.0,70,0.00,,,0.10,1.000000,,2013-08-03 04:33:00,
2013-08-02 22:43:00,51.0,42.0,-100.00,WNW,298,1.0,3.0,70,0.00,,,0.10,1.000000,,2013-08-03 04:43:00,
2013-08-02 22:53:00,51.0,42.0,-100.00,WNW,298,1.0,3.0,70,0.00,,,0.10,1.000000,,2013-08-03 04:53:00,
2013-08-02 23:02:00,51.0,44.0,-100.00,NW,319,1.0,3.0,76,0.00,,,0.00,0.000000,,2013-08-03 05:02:00,
2013-08-02 23:32:00,51.0,44.0,-100.00,NW,319,1.0,3.0,76,0.00,,,0.00,0.000000,,2013-08-03 05:32:00,
2013-08-02 23:42:00,51.0,44.0,-100.00,NW,319,1.0,3.0,76,0.00,,,0.00,0.000000,,2013-08-03 05:42:00,
2013-08-02 23:52:00,51.0,44.0,-100.00,NW,319,1.0,3.0,76,0.00,,,0.00,0.000000,,2013-08-03 05:52:00,